sensor_id;sensor_type;location;lat;lon;timestamp;temperature;humidity
64685;DHT22;51109;47.414;18.954;2022-10-16T00:00:35;14.50;99.90
64685;DHT22;51109;47.414;18.954;2022-10-16T00:03:02;14.50;99.90
64685;DHT22;51109;47.414;18.954;2022-10-16T00:05:29;14.40;99.90
64685;DHT22;51109;47.414;18.954;2022-10-16T00:07:56;14.40;99.90
64685;DHT22;51109;47.414;18.954;2022-10-16T00:10:21;14.40;99.90
64685;DHT22;51109;47.414;18.954;2022-10-16T00:12:48;14.40;99.90
64685;DHT22;51109;47.414;18.954;2022-10-16T00:15:14;14.40;99.90
64685;DHT22;51109;47.414;18.954;2022-10-16T00:17:40;14.30;99.90
64685;DHT22;51109;47.414;18.954;2022-10-16T00:20:06;14.30;99.90
64685;DHT22;51109;47.414;18.954;2022-10-16T00:22:33;14.30;99.90
64685;DHT22;51109;47.414;18.954;2022-10-16T00:24:59;14.30;99.90
64685;DHT22;51109;47.414;18.954;2022-10-16T00:27:24;14.20;99.90
64685;DHT22;51109;47.414;18.954;2022-10-16T00:29:51;14.30;99.90
64685;DHT22;51109;47.414;18.954;2022-10-16T00:32:20;14.20;99.90
64685;DHT22;51109;47.414;18.954;2022-10-16T00:34:47;14.20;99.90
64685;DHT22;51109;47.414;18.954;2022-10-16T00:37:13;14.20;99.90
64685;DHT22;51109;47.414;18.954;2022-10-16T00:39:39;14.10;99.90
64685;DHT22;51109;47.414;18.954;2022-10-16T00:42:05;14.10;99.90
64685;DHT22;51109;47.414;18.954;2022-10-16T00:44:52;14.10;99.90
64685;DHT22;51109;47.414;18.954;2022-10-16T00:47:28;14.10;99.90
64685;DHT22;51109;47.414;18.954;2022-10-16T00:50:11;14.10;99.90
64685;DHT22;51109;47.414;18.954;2022-10-16T00:52:43;14.00;99.90
64685;DHT22;51109;47.414;18.954;2022-10-16T00:55:10;14.00;99.90
64685;DHT22;51109;47.414;18.954;2022-10-16T00:57:36;14.00;99.90
64685;DHT22;51109;47.414;18.954;2022-10-16T01:00:09;13.90;99.90
64685;DHT22;51109;47.414;18.954;2022-10-16T01:02:36;13.80;99.90
64685;DHT22;51109;47.414;18.954;2022-10-16T01:05:03;13.80;99.90
64685;DHT22;51109;47.414;18.954;2022-10-16T01:07:56;13.70;99.90
64685;DHT22;51109;47.414;18.954;2022-10-16T01:10:40;13.60;99.90
64685;DHT22;51109;47.414;18.954;2022-10-16T01:13:24;13.50;99.90
64685;DHT22;51109;47.414;18.954;2022-10-16T01:15:56;13.50;99.90
64685;DHT22;51109;47.414;18.954;2022-10-16T01:18:45;13.40;99.90
64685;DHT22;51109;47.414;18.954;2022-10-16T01:21:31;13.40;99.90
64685;DHT22;51109;47.414;18.954;2022-10-16T01:24:22;13.30;99.90
64685;DHT22;51109;47.414;18.954;2022-10-16T01:27:15;13.20;99.90
64685;DHT22;51109;47.414;18.954;2022-10-16T01:29:59;13.00;99.90
64685;DHT22;51109;47.414;18.954;2022-10-16T01:32:38;13.00;99.90
64685;DHT22;51109;47.414;18.954;2022-10-16T01:40:49;13.00;99.90
64685;DHT22;51109;47.414;18.954;2022-10-16T01:43:20;13.00;99.90
64685;DHT22;51109;47.414;18.954;2022-10-16T01:45:46;12.90;99.90
64685;DHT22;51109;47.414;18.954;2022-10-16T01:48:16;12.90;99.90
64685;DHT22;51109;47.414;18.954;2022-10-16T01:50:44;12.80;99.90
64685;DHT22;51109;47.414;18.954;2022-10-16T01:53:16;12.80;99.90
64685;DHT22;51109;47.414;18.954;2022-10-16T01:55:46;12.70;99.90
64685;DHT22;51109;47.414;18.954;2022-10-16T01:58:14;12.70;99.90
64685;DHT22;51109;47.414;18.954;2022-10-16T02:00:43;12.70;99.90
64685;DHT22;51109;47.414;18.954;2022-10-16T02:03:11;12.60;99.90
64685;DHT22;51109;47.414;18.954;2022-10-16T02:08:07;12.60;99.90
64685;DHT22;51109;47.414;18.954;2022-10-16T02:10:35;12.60;99.90
64685;DHT22;51109;47.414;18.954;2022-10-16T02:15:34;12.60;99.90
64685;DHT22;51109;47.414;18.954;2022-10-16T02:18:02;12.60;99.90
64685;DHT22;51109;47.414;18.954;2022-10-16T02:20:31;12.60;99.90
64685;DHT22;51109;47.414;18.954;2022-10-16T02:22:58;12.70;99.90
64685;DHT22;51109;47.414;18.954;2022-10-16T02:25:38;12.70;99.90
64685;DHT22;51109;47.414;18.954;2022-10-16T02:28:21;12.50;99.90
64685;DHT22;51109;47.414;18.954;2022-10-16T02:30:59;12.50;99.90
64685;DHT22;51109;47.414;18.954;2022-10-16T02:33:28;12.40;99.90
64685;DHT22;51109;47.414;18.954;2022-10-16T02:35:55;12.40;99.90
64685;DHT22;51109;47.414;18.954;2022-10-16T02:38:22;12.30;99.90
64685;DHT22;51109;47.414;18.954;2022-10-16T02:40:49;12.30;99.90
64685;DHT22;51109;47.414;18.954;2022-10-16T02:43:16;12.30;99.90
64685;DHT22;51109;47.414;18.954;2022-10-16T02:45:41;12.40;99.90
64685;DHT22;51109;47.414;18.954;2022-10-16T02:48:08;12.40;99.90
64685;DHT22;51109;47.414;18.954;2022-10-16T02:50:33;12.40;99.90
64685;DHT22;51109;47.414;18.954;2022-10-16T02:52:59;12.30;99.90
64685;DHT22;51109;47.414;18.954;2022-10-16T02:55:25;12.20;99.90
64685;DHT22;51109;47.414;18.954;2022-10-16T02:57:54;12.20;99.90
64685;DHT22;51109;47.414;18.954;2022-10-16T03:00:20;12.30;99.90
64685;DHT22;51109;47.414;18.954;2022-10-16T03:02:46;12.30;99.90
64685;DHT22;51109;47.414;18.954;2022-10-16T03:05:13;12.40;99.90
64685;DHT22;51109;47.414;18.954;2022-10-16T03:07:39;12.30;99.90
64685;DHT22;51109;47.414;18.954;2022-10-16T03:10:06;12.30;99.90
64685;DHT22;51109;47.414;18.954;2022-10-16T03:12:32;12.30;99.90
64685;DHT22;51109;47.414;18.954;2022-10-16T03:14:58;12.30;99.90
64685;DHT22;51109;47.414;18.954;2022-10-16T03:17:24;12.30;99.90
64685;DHT22;51109;47.414;18.954;2022-10-16T03:19:51;12.20;99.90
64685;DHT22;51109;47.414;18.954;2022-10-16T03:22:17;12.20;99.90
64685;DHT22;51109;47.414;18.954;2022-10-16T03:24:42;12.20;99.90
64685;DHT22;51109;47.414;18.954;2022-10-16T03:27:08;12.10;99.90
64685;DHT22;51109;47.414;18.954;2022-10-16T03:29:34;12.00;99.90
64685;DHT22;51109;47.414;18.954;2022-10-16T03:32:00;12.10;99.90
64685;DHT22;51109;47.414;18.954;2022-10-16T03:34:26;12.10;99.90
64685;DHT22;51109;47.414;18.954;2022-10-16T03:36:52;12.10;99.90
64685;DHT22;51109;47.414;18.954;2022-10-16T03:39:18;12.10;99.90
64685;DHT22;51109;47.414;18.954;2022-10-16T03:41:44;12.10;99.90
64685;DHT22;51109;47.414;18.954;2022-10-16T03:44:12;12.10;99.90
64685;DHT22;51109;47.414;18.954;2022-10-16T03:46:47;12.10;99.90
64685;DHT22;51109;47.414;18.954;2022-10-16T03:49:13;12.10;99.90
64685;DHT22;51109;47.414;18.954;2022-10-16T03:51:39;12.10;99.90
64685;DHT22;51109;47.414;18.954;2022-10-16T03:54:05;12.10;99.90
64685;DHT22;51109;47.414;18.954;2022-10-16T03:56:31;12.10;99.90
64685;DHT22;51109;47.414;18.954;2022-10-16T03:58:56;12.10;99.90
64685;DHT22;51109;47.414;18.954;2022-10-16T04:01:22;11.90;99.90
64685;DHT22;51109;47.414;18.954;2022-10-16T04:03:48;11.90;99.90
64685;DHT22;51109;47.414;18.954;2022-10-16T04:06:14;11.80;99.90
64685;DHT22;51109;47.414;18.954;2022-10-16T04:08:43;11.70;99.90
64685;DHT22;51109;47.414;18.954;2022-10-16T04:11:09;11.70;99.90
64685;DHT22;51109;47.414;18.954;2022-10-16T04:13:34;11.70;99.90
64685;DHT22;51109;47.414;18.954;2022-10-16T04:16:00;11.70;99.90
64685;DHT22;51109;47.414;18.954;2022-10-16T04:18:26;11.80;99.90
64685;DHT22;51109;47.414;18.954;2022-10-16T04:20:55;11.70;99.90
64685;DHT22;51109;47.414;18.954;2022-10-16T04:23:21;11.50;99.90
64685;DHT22;51109;47.414;18.954;2022-10-16T04:25:48;11.30;99.90
64685;DHT22;51109;47.414;18.954;2022-10-16T04:28:14;11.40;99.90
64685;DHT22;51109;47.414;18.954;2022-10-16T04:30:40;11.50;99.90
64685;DHT22;51109;47.414;18.954;2022-10-16T04:33:08;11.50;99.90
64685;DHT22;51109;47.414;18.954;2022-10-16T04:35:34;11.50;99.90
64685;DHT22;51109;47.414;18.954;2022-10-16T04:38:00;11.50;99.90
64685;DHT22;51109;47.414;18.954;2022-10-16T04:40:25;11.40;99.90
64685;DHT22;51109;47.414;18.954;2022-10-16T04:42:51;11.30;99.90
64685;DHT22;51109;47.414;18.954;2022-10-16T04:45:18;11.30;99.90
64685;DHT22;51109;47.414;18.954;2022-10-16T04:47:43;11.40;99.90
64685;DHT22;51109;47.414;18.954;2022-10-16T04:50:09;11.40;99.90
64685;DHT22;51109;47.414;18.954;2022-10-16T04:52:36;11.40;99.90
64685;DHT22;51109;47.414;18.954;2022-10-16T04:55:02;11.40;99.90
64685;DHT22;51109;47.414;18.954;2022-10-16T04:57:29;11.50;99.90
64685;DHT22;51109;47.414;18.954;2022-10-16T04:59:55;11.40;99.90
64685;DHT22;51109;47.414;18.954;2022-10-16T05:02:21;11.30;99.90
64685;DHT22;51109;47.414;18.954;2022-10-16T05:04:47;11.30;99.90
64685;DHT22;51109;47.414;18.954;2022-10-16T05:07:12;11.30;99.90
64685;DHT22;51109;47.414;18.954;2022-10-16T05:09:38;11.30;99.90
64685;DHT22;51109;47.414;18.954;2022-10-16T05:12:04;11.30;99.90
64685;DHT22;51109;47.414;18.954;2022-10-16T05:14:30;11.40;99.90
64685;DHT22;51109;47.414;18.954;2022-10-16T05:16:56;11.40;99.90
64685;DHT22;51109;47.414;18.954;2022-10-16T05:19:22;11.50;99.90
64685;DHT22;51109;47.414;18.954;2022-10-16T05:21:48;11.50;99.90
64685;DHT22;51109;47.414;18.954;2022-10-16T05:24:14;11.50;99.90
64685;DHT22;51109;47.414;18.954;2022-10-16T05:26:40;11.40;99.90
64685;DHT22;51109;47.414;18.954;2022-10-16T05:29:06;11.50;99.90
64685;DHT22;51109;47.414;18.954;2022-10-16T05:31:32;11.50;99.90
64685;DHT22;51109;47.414;18.954;2022-10-16T05:34:01;11.60;99.90
64685;DHT22;51109;47.414;18.954;2022-10-16T05:36:27;11.50;99.90
64685;DHT22;51109;47.414;18.954;2022-10-16T05:38:53;11.60;99.90
64685;DHT22;51109;47.414;18.954;2022-10-16T05:41:19;11.50;99.90
64685;DHT22;51109;47.414;18.954;2022-10-16T05:43:47;11.60;99.90
64685;DHT22;51109;47.414;18.954;2022-10-16T05:46:14;11.70;99.90
64685;DHT22;51109;47.414;18.954;2022-10-16T05:48:40;11.70;99.90
64685;DHT22;51109;47.414;18.954;2022-10-16T05:51:07;11.70;99.90
64685;DHT22;51109;47.414;18.954;2022-10-16T05:53:36;11.80;99.90
64685;DHT22;51109;47.414;18.954;2022-10-16T05:56:04;11.80;99.90
64685;DHT22;51109;47.414;18.954;2022-10-16T05:58:35;11.90;99.90
64685;DHT22;51109;47.414;18.954;2022-10-16T06:01:05;11.90;99.90
64685;DHT22;51109;47.414;18.954;2022-10-16T06:03:31;12.00;99.90
64685;DHT22;51109;47.414;18.954;2022-10-16T06:05:57;12.00;99.90
64685;DHT22;51109;47.414;18.954;2022-10-16T06:08:23;12.10;99.90
64685;DHT22;51109;47.414;18.954;2022-10-16T06:10:59;12.20;99.90
64685;DHT22;51109;47.414;18.954;2022-10-16T06:13:25;12.20;99.90
64685;DHT22;51109;47.414;18.954;2022-10-16T06:15:51;12.20;99.90
64685;DHT22;51109;47.414;18.954;2022-10-16T06:18:17;12.20;99.90
64685;DHT22;51109;47.414;18.954;2022-10-16T06:20:42;12.30;99.90
64685;DHT22;51109;47.414;18.954;2022-10-16T06:23:08;12.30;99.90
64685;DHT22;51109;47.414;18.954;2022-10-16T06:25:34;12.30;99.90
64685;DHT22;51109;47.414;18.954;2022-10-16T06:28:00;12.50;99.90
64685;DHT22;51109;47.414;18.954;2022-10-16T06:30:26;12.60;99.90
64685;DHT22;51109;47.414;18.954;2022-10-16T06:32:52;12.70;99.90
64685;DHT22;51109;47.414;18.954;2022-10-16T06:35:18;12.80;99.90
64685;DHT22;51109;47.414;18.954;2022-10-16T06:37:44;12.90;99.90
64685;DHT22;51109;47.414;18.954;2022-10-16T06:40:10;13.00;99.90
64685;DHT22;51109;47.414;18.954;2022-10-16T06:42:35;13.00;99.90
64685;DHT22;51109;47.414;18.954;2022-10-16T06:45:01;12.90;99.90
64685;DHT22;51109;47.414;18.954;2022-10-16T06:47:27;12.90;99.90
64685;DHT22;51109;47.414;18.954;2022-10-16T06:49:53;12.90;99.90
64685;DHT22;51109;47.414;18.954;2022-10-16T06:52:19;13.00;99.90
64685;DHT22;51109;47.414;18.954;2022-10-16T06:54:45;13.10;99.90
64685;DHT22;51109;47.414;18.954;2022-10-16T06:57:11;13.20;99.90
64685;DHT22;51109;47.414;18.954;2022-10-16T06:59:36;13.30;99.90
64685;DHT22;51109;47.414;18.954;2022-10-16T07:02:02;13.40;99.90
64685;DHT22;51109;47.414;18.954;2022-10-16T07:04:28;13.50;99.90
64685;DHT22;51109;47.414;18.954;2022-10-16T07:06:54;13.50;99.90
64685;DHT22;51109;47.414;18.954;2022-10-16T07:09:20;13.50;99.90
64685;DHT22;51109;47.414;18.954;2022-10-16T07:11:46;13.90;99.90
64685;DHT22;51109;47.414;18.954;2022-10-16T07:14:20;13.70;99.90
64685;DHT22;51109;47.414;18.954;2022-10-16T07:16:46;13.80;99.90
64685;DHT22;51109;47.414;18.954;2022-10-16T07:19:13;13.90;99.90
64685;DHT22;51109;47.414;18.954;2022-10-16T07:21:41;13.90;99.90
64685;DHT22;51109;47.414;18.954;2022-10-16T07:24:12;13.90;99.90
64685;DHT22;51109;47.414;18.954;2022-10-16T07:26:39;14.00;99.90
64685;DHT22;51109;47.414;18.954;2022-10-16T07:29:08;13.80;99.90
64685;DHT22;51109;47.414;18.954;2022-10-16T07:31:36;14.20;99.90
64685;DHT22;51109;47.414;18.954;2022-10-16T07:34:03;14.20;99.90
64685;DHT22;51109;47.414;18.954;2022-10-16T07:36:29;14.30;99.90
64685;DHT22;51109;47.414;18.954;2022-10-16T07:38:55;14.40;99.90
64685;DHT22;51109;47.414;18.954;2022-10-16T07:41:21;14.30;99.90
64685;DHT22;51109;47.414;18.954;2022-10-16T07:43:48;14.40;99.90
64685;DHT22;51109;47.414;18.954;2022-10-16T07:46:14;14.50;99.90
64685;DHT22;51109;47.414;18.954;2022-10-16T07:48:40;14.60;99.90
64685;DHT22;51109;47.414;18.954;2022-10-16T07:51:07;14.60;99.90
64685;DHT22;51109;47.414;18.954;2022-10-16T07:53:33;15.40;99.90
64685;DHT22;51109;47.414;18.954;2022-10-16T07:56:04;14.80;99.90
64685;DHT22;51109;47.414;18.954;2022-10-16T07:58:32;14.80;99.90
64685;DHT22;51109;47.414;18.954;2022-10-16T08:00:58;14.90;99.90
64685;DHT22;51109;47.414;18.954;2022-10-16T08:03:25;14.70;99.90
64685;DHT22;51109;47.414;18.954;2022-10-16T08:05:54;14.90;99.90
64685;DHT22;51109;47.414;18.954;2022-10-16T08:08:22;14.80;99.90
64685;DHT22;51109;47.414;18.954;2022-10-16T08:10:48;14.90;99.90
64685;DHT22;51109;47.414;18.954;2022-10-16T08:13:13;15.00;99.90
64685;DHT22;51109;47.414;18.954;2022-10-16T08:15:41;15.20;99.90
64685;DHT22;51109;47.414;18.954;2022-10-16T08:18:07;15.20;99.90
64685;DHT22;51109;47.414;18.954;2022-10-16T08:20:34;15.40;99.90
64685;DHT22;51109;47.414;18.954;2022-10-16T08:23:01;15.40;99.90
64685;DHT22;51109;47.414;18.954;2022-10-16T08:25:27;15.40;99.90
64685;DHT22;51109;47.414;18.954;2022-10-16T08:27:54;15.40;99.90
64685;DHT22;51109;47.414;18.954;2022-10-16T08:30:21;15.40;99.90
64685;DHT22;51109;47.414;18.954;2022-10-16T08:32:48;15.40;99.90
64685;DHT22;51109;47.414;18.954;2022-10-16T08:35:14;15.50;99.90
64685;DHT22;51109;47.414;18.954;2022-10-16T08:37:41;15.60;99.90
64685;DHT22;51109;47.414;18.954;2022-10-16T08:40:17;15.60;99.90
64685;DHT22;51109;47.414;18.954;2022-10-16T08:45:35;15.90;99.90
64685;DHT22;51109;47.414;18.954;2022-10-16T08:51:09;15.80;99.90
64685;DHT22;51109;47.414;18.954;2022-10-16T08:53:55;15.90;99.90
64685;DHT22;51109;47.414;18.954;2022-10-16T08:56:21;16.00;99.90
64685;DHT22;51109;47.414;18.954;2022-10-16T08:58:48;16.10;99.90
64685;DHT22;51109;47.414;18.954;2022-10-16T09:01:16;16.20;99.90
64685;DHT22;51109;47.414;18.954;2022-10-16T09:06:47;16.30;99.90
64685;DHT22;51109;47.414;18.954;2022-10-16T09:25:38;16.70;99.90
64685;DHT22;51109;47.414;18.954;2022-10-16T09:28:04;16.90;99.90
64685;DHT22;51109;47.414;18.954;2022-10-16T09:30:30;17.00;99.90
64685;DHT22;51109;47.414;18.954;2022-10-16T09:32:58;17.10;99.90
64685;DHT22;51109;47.414;18.954;2022-10-16T09:35:40;17.10;99.90
64685;DHT22;51109;47.414;18.954;2022-10-16T09:38:07;17.10;99.90
64685;DHT22;51109;47.414;18.954;2022-10-16T09:40:38;17.20;99.90
64685;DHT22;51109;47.414;18.954;2022-10-16T09:43:21;17.20;99.90
64685;DHT22;51109;47.414;18.954;2022-10-16T09:46:27;17.10;99.90
64685;DHT22;51109;47.414;18.954;2022-10-16T09:49:02;17.20;99.90
64685;DHT22;51109;47.414;18.954;2022-10-16T09:56:39;17.50;99.90
64685;DHT22;51109;47.414;18.954;2022-10-16T09:59:17;17.60;99.90
64685;DHT22;51109;47.414;18.954;2022-10-16T10:01:49;17.70;99.90
64685;DHT22;51109;47.414;18.954;2022-10-16T10:04:17;17.80;99.90
64685;DHT22;51109;47.414;18.954;2022-10-16T10:06:51;18.00;99.90
64685;DHT22;51109;47.414;18.954;2022-10-16T10:12:01;18.30;99.90
64685;DHT22;51109;47.414;18.954;2022-10-16T10:14:37;18.40;99.90
64685;DHT22;51109;47.414;18.954;2022-10-16T10:17:19;18.40;99.90
64685;DHT22;51109;47.414;18.954;2022-10-16T10:19:57;18.30;99.90
64685;DHT22;51109;47.414;18.954;2022-10-16T10:22:42;18.10;99.90
64685;DHT22;51109;47.414;18.954;2022-10-16T10:33:46;18.20;99.90
64685;DHT22;51109;47.414;18.954;2022-10-16T10:44:33;18.70;99.90
64685;DHT22;51109;47.414;18.954;2022-10-16T10:52:56;18.70;99.90
64685;DHT22;51109;47.414;18.954;2022-10-16T11:01:35;18.90;99.90
64685;DHT22;51109;47.414;18.954;2022-10-16T11:06:59;19.10;99.90
64685;DHT22;51109;47.414;18.954;2022-10-16T11:09:47;19.20;99.90
64685;DHT22;51109;47.414;18.954;2022-10-16T11:12:35;19.30;99.90
64685;DHT22;51109;47.414;18.954;2022-10-16T11:15:17;19.50;99.90
64685;DHT22;51109;47.414;18.954;2022-10-16T11:17:52;19.50;99.90
64685;DHT22;51109;47.414;18.954;2022-10-16T11:20:30;19.50;99.90
64685;DHT22;51109;47.414;18.954;2022-10-16T11:23:08;19.30;99.90
64685;DHT22;51109;47.414;18.954;2022-10-16T11:25:36;19.40;99.90
64685;DHT22;51109;47.414;18.954;2022-10-16T11:30:55;19.50;99.90
64685;DHT22;51109;47.414;18.954;2022-10-16T11:36:20;19.90;99.90
64685;DHT22;51109;47.414;18.954;2022-10-16T11:41:43;19.90;99.90
64685;DHT22;51109;47.414;18.954;2022-10-16T11:46:46;20.00;99.90
64685;DHT22;51109;47.414;18.954;2022-10-16T11:49:21;20.10;99.90
64685;DHT22;51109;47.414;18.954;2022-10-16T11:57:39;20.20;99.90
64685;DHT22;51109;47.414;18.954;2022-10-16T12:08:14;20.40;99.90
64685;DHT22;51109;47.414;18.954;2022-10-16T12:10:43;20.50;99.90
64685;DHT22;51109;47.414;18.954;2022-10-16T12:13:31;20.60;99.90
64685;DHT22;51109;47.414;18.954;2022-10-16T12:18:40;20.60;99.90
64685;DHT22;51109;47.414;18.954;2022-10-16T12:21:06;20.40;99.90
64685;DHT22;51109;47.414;18.954;2022-10-16T12:23:37;20.50;99.90
64685;DHT22;51109;47.414;18.954;2022-10-16T12:26:04;20.60;99.90
64685;DHT22;51109;47.414;18.954;2022-10-16T12:28:32;20.70;99.90
64685;DHT22;51109;47.414;18.954;2022-10-16T12:30:59;20.70;99.90
64685;DHT22;51109;47.414;18.954;2022-10-16T12:33:30;20.50;99.90
64685;DHT22;51109;47.414;18.954;2022-10-16T12:36:00;20.70;99.90
64685;DHT22;51109;47.414;18.954;2022-10-16T12:38:46;20.60;99.90
64685;DHT22;51109;47.414;18.954;2022-10-16T12:41:34;20.60;99.90
64685;DHT22;51109;47.414;18.954;2022-10-16T12:44:01;20.50;99.90
64685;DHT22;51109;47.414;18.954;2022-10-16T12:51:38;20.30;99.90
64685;DHT22;51109;47.414;18.954;2022-10-16T13:08:33;20.30;99.90
64685;DHT22;51109;47.414;18.954;2022-10-16T13:11:16;20.30;99.90
64685;DHT22;51109;47.414;18.954;2022-10-16T13:14:20;20.20;99.90
64685;DHT22;51109;47.414;18.954;2022-10-16T13:17:30;20.10;99.90
64685;DHT22;51109;47.414;18.954;2022-10-16T13:20:35;20.20;99.90
64685;DHT22;51109;47.414;18.954;2022-10-16T13:28:06;20.10;99.90
64685;DHT22;51109;47.414;18.954;2022-10-16T13:30:40;20.20;99.90
64685;DHT22;51109;47.414;18.954;2022-10-16T13:33:14;20.10;99.90
64685;DHT22;51109;47.414;18.954;2022-10-16T13:35:54;19.90;99.90
64685;DHT22;51109;47.414;18.954;2022-10-16T13:38:26;21.20;99.90
64685;DHT22;51109;47.414;18.954;2022-10-16T13:41:05;19.90;99.90
64685;DHT22;51109;47.414;18.954;2022-10-16T13:43:37;19.90;99.90
64685;DHT22;51109;47.414;18.954;2022-10-16T13:46:06;20.00;99.90
64685;DHT22;51109;47.414;18.954;2022-10-16T13:48:34;20.10;99.90
64685;DHT22;51109;47.414;18.954;2022-10-16T13:51:01;20.00;99.90
64685;DHT22;51109;47.414;18.954;2022-10-16T13:53:36;20.00;99.90
64685;DHT22;51109;47.414;18.954;2022-10-16T13:56:03;19.90;99.90
64685;DHT22;51109;47.414;18.954;2022-10-16T13:58:30;19.80;99.90
64685;DHT22;51109;47.414;18.954;2022-10-16T14:03:24;19.90;99.90
64685;DHT22;51109;47.414;18.954;2022-10-16T14:05:55;19.90;99.90
64685;DHT22;51109;47.414;18.954;2022-10-16T14:08:23;19.90;99.90
64685;DHT22;51109;47.414;18.954;2022-10-16T14:10:52;19.80;99.90
64685;DHT22;51109;47.414;18.954;2022-10-16T14:13:24;19.80;99.90
64685;DHT22;51109;47.414;18.954;2022-10-16T14:15:52;19.80;99.90
64685;DHT22;51109;47.414;18.954;2022-10-16T14:18:25;19.60;99.90
64685;DHT22;51109;47.414;18.954;2022-10-16T14:20:52;19.60;99.90
64685;DHT22;51109;47.414;18.954;2022-10-16T14:23:31;19.60;99.90
64685;DHT22;51109;47.414;18.954;2022-10-16T14:28:37;19.60;99.90
64685;DHT22;51109;47.414;18.954;2022-10-16T14:31:24;19.60;99.90
64685;DHT22;51109;47.414;18.954;2022-10-16T14:33:50;19.50;99.90
64685;DHT22;51109;47.414;18.954;2022-10-16T14:36:16;19.60;99.90
64685;DHT22;51109;47.414;18.954;2022-10-16T14:39:04;19.50;99.90
64685;DHT22;51109;47.414;18.954;2022-10-16T14:41:32;19.50;99.90
64685;DHT22;51109;47.414;18.954;2022-10-16T14:44:03;19.50;99.90
64685;DHT22;51109;47.414;18.954;2022-10-16T14:46:36;19.30;99.90
64685;DHT22;51109;47.414;18.954;2022-10-16T14:51:39;19.30;99.90
64685;DHT22;51109;47.414;18.954;2022-10-16T14:54:15;19.20;99.90
64685;DHT22;51109;47.414;18.954;2022-10-16T14:56:56;19.20;99.90
64685;DHT22;51109;47.414;18.954;2022-10-16T14:59:35;19.20;99.90
64685;DHT22;51109;47.414;18.954;2022-10-16T15:02:19;19.20;99.90
64685;DHT22;51109;47.414;18.954;2022-10-16T15:04:46;19.10;99.90
64685;DHT22;51109;47.414;18.954;2022-10-16T15:07:12;19.00;99.90
64685;DHT22;51109;47.414;18.954;2022-10-16T15:09:38;19.00;99.90
64685;DHT22;51109;47.414;18.954;2022-10-16T15:12:04;18.90;99.90
64685;DHT22;51109;47.414;18.954;2022-10-16T15:14:30;18.90;99.90
64685;DHT22;51109;47.414;18.954;2022-10-16T15:16:56;18.90;99.90
64685;DHT22;51109;47.414;18.954;2022-10-16T15:19:22;18.80;99.90
64685;DHT22;51109;47.414;18.954;2022-10-16T15:21:49;18.80;99.90
64685;DHT22;51109;47.414;18.954;2022-10-16T15:24:15;18.80;99.90
64685;DHT22;51109;47.414;18.954;2022-10-16T15:26:44;18.80;99.90
64685;DHT22;51109;47.414;18.954;2022-10-16T15:29:13;18.70;99.90
64685;DHT22;51109;47.414;18.954;2022-10-16T15:31:40;18.60;99.90
64685;DHT22;51109;47.414;18.954;2022-10-16T15:34:09;18.50;99.90
64685;DHT22;51109;47.414;18.954;2022-10-16T15:36:37;18.50;99.90
64685;DHT22;51109;47.414;18.954;2022-10-16T15:39:05;18.40;99.90
64685;DHT22;51109;47.414;18.954;2022-10-16T15:41:31;18.40;99.90
64685;DHT22;51109;47.414;18.954;2022-10-16T15:43:57;18.30;99.90
64685;DHT22;51109;47.414;18.954;2022-10-16T15:46:24;18.20;99.90
64685;DHT22;51109;47.414;18.954;2022-10-16T15:48:50;18.00;99.90
64685;DHT22;51109;47.414;18.954;2022-10-16T15:51:18;17.80;99.90
64685;DHT22;51109;47.414;18.954;2022-10-16T15:53:44;17.70;99.90
64685;DHT22;51109;47.414;18.954;2022-10-16T15:56:12;17.50;99.90
64685;DHT22;51109;47.414;18.954;2022-10-16T15:58:38;17.60;99.90
64685;DHT22;51109;47.414;18.954;2022-10-16T16:01:05;17.50;99.90
64685;DHT22;51109;47.414;18.954;2022-10-16T16:03:32;17.60;99.90
64685;DHT22;51109;47.414;18.954;2022-10-16T16:06:03;17.60;99.90
64685;DHT22;51109;47.414;18.954;2022-10-16T16:08:28;17.50;99.90
64685;DHT22;51109;47.414;18.954;2022-10-16T16:11:04;17.40;99.90
64685;DHT22;51109;47.414;18.954;2022-10-16T16:13:30;17.20;99.90
64685;DHT22;51109;47.414;18.954;2022-10-16T16:15:56;16.90;99.90
64685;DHT22;51109;47.414;18.954;2022-10-16T16:18:23;16.70;99.90
64685;DHT22;51109;47.414;18.954;2022-10-16T16:20:50;16.50;99.90
64685;DHT22;51109;47.414;18.954;2022-10-16T16:23:16;16.40;99.90
64685;DHT22;51109;47.414;18.954;2022-10-16T16:25:42;16.20;99.90
64685;DHT22;51109;47.414;18.954;2022-10-16T16:28:08;16.10;99.90
64685;DHT22;51109;47.414;18.954;2022-10-16T16:30:36;16.10;99.90
64685;DHT22;51109;47.414;18.954;2022-10-16T16:33:02;16.00;99.90
64685;DHT22;51109;47.414;18.954;2022-10-16T16:35:32;16.00;99.90
64685;DHT22;51109;47.414;18.954;2022-10-16T16:37:57;16.00;99.90
64685;DHT22;51109;47.414;18.954;2022-10-16T16:40:23;16.00;99.90
64685;DHT22;51109;47.414;18.954;2022-10-16T16:42:49;16.00;99.90
64685;DHT22;51109;47.414;18.954;2022-10-16T16:45:15;15.80;99.90
64685;DHT22;51109;47.414;18.954;2022-10-16T16:47:41;15.80;99.90
64685;DHT22;51109;47.414;18.954;2022-10-16T16:50:07;15.70;99.90
64685;DHT22;51109;47.414;18.954;2022-10-16T16:52:35;15.60;99.90
64685;DHT22;51109;47.414;18.954;2022-10-16T16:55:01;15.60;99.90
64685;DHT22;51109;47.414;18.954;2022-10-16T16:57:28;15.50;99.90
64685;DHT22;51109;47.414;18.954;2022-10-16T16:59:53;15.50;99.90
64685;DHT22;51109;47.414;18.954;2022-10-16T17:02:19;15.60;99.90
64685;DHT22;51109;47.414;18.954;2022-10-16T17:04:48;15.60;99.90
64685;DHT22;51109;47.414;18.954;2022-10-16T17:07:14;15.60;99.90
64685;DHT22;51109;47.414;18.954;2022-10-16T17:09:40;15.60;99.90
64685;DHT22;51109;47.414;18.954;2022-10-16T17:12:06;15.60;99.90
64685;DHT22;51109;47.414;18.954;2022-10-16T17:14:31;15.70;99.90
64685;DHT22;51109;47.414;18.954;2022-10-16T17:16:57;15.70;99.90
64685;DHT22;51109;47.414;18.954;2022-10-16T17:19:23;15.80;99.90
64685;DHT22;51109;47.414;18.954;2022-10-16T17:21:50;15.90;99.90
64685;DHT22;51109;47.414;18.954;2022-10-16T17:24:16;16.00;99.90
64685;DHT22;51109;47.414;18.954;2022-10-16T17:26:44;16.00;99.90
64685;DHT22;51109;47.414;18.954;2022-10-16T17:29:14;16.00;99.90
64685;DHT22;51109;47.414;18.954;2022-10-16T17:31:40;16.00;99.90
64685;DHT22;51109;47.414;18.954;2022-10-16T17:34:07;16.00;99.90
64685;DHT22;51109;47.414;18.954;2022-10-16T17:36:36;16.00;99.90
64685;DHT22;51109;47.414;18.954;2022-10-16T17:39:07;16.00;99.90
64685;DHT22;51109;47.414;18.954;2022-10-16T17:41:34;16.00;99.90
64685;DHT22;51109;47.414;18.954;2022-10-16T17:44:00;16.00;99.90